sensor_id;sensor_type;location;lat;lon;timestamp;P1;durP1;ratioP1;P2;durP2;ratioP2
14933;SDS011;7560;51.364;12.384;2022-09-27T00:04:28;1.90;;;1.00;;
14933;SDS011;7560;51.364;12.384;2022-09-27T00:09:30;2.15;;;1.20;;
14933;SDS011;7560;51.364;12.384;2022-09-27T00:14:32;2.67;;;1.23;;
14933;SDS011;7560;51.364;12.384;2022-09-27T00:19:33;1.30;;;1.20;;
14933;SDS011;7560;51.364;12.384;2022-09-27T00:24:35;1.30;;;1.20;;
14933;SDS011;7560;51.364;12.384;2022-09-27T00:29:37;2.03;;;1.10;;
14933;SDS011;7560;51.364;12.384;2022-09-27T00:34:39;1.23;;;1.00;;
14933;SDS011;7560;51.364;12.384;2022-09-27T00:39:41;1.48;;;1.20;;
14933;SDS011;7560;51.364;12.384;2022-09-27T00:45:04;1.40;;;1.30;;
14933;SDS011;7560;51.364;12.384;2022-09-27T00:50:27;2.25;;;1.25;;
14933;SDS011;7560;51.364;12.384;2022-09-27T00:55:34;2.58;;;1.48;;
14933;SDS011;7560;51.364;12.384;2022-09-27T01:00:41;2.00;;;1.45;;
14933;SDS011;7560;51.364;12.384;2022-09-27T01:05:46;1.48;;;1.38;;
14933;SDS011;7560;51.364;12.384;2022-09-27T01:10:54;2.13;;;1.60;;
14933;SDS011;7560;51.364;12.384;2022-09-27T01:16:12;2.72;;;1.35;;
14933;SDS011;7560;51.364;12.384;2022-09-27T01:32:10;1.48;;;1.38;;
14933;SDS011;7560;51.364;12.384;2022-09-27T01:42:36;3.05;;;1.42;;
14933;SDS011;7560;51.364;12.384;2022-09-27T01:47:44;2.35;;;1.10;;
14933;SDS011;7560;51.364;12.384;2022-09-27T01:52:56;1.55;;;1.23;;
14933;SDS011;7560;51.364;12.384;2022-09-27T01:58:15;2.08;;;1.10;;
14933;SDS011;7560;51.364;12.384;2022-09-27T02:03:26;1.50;;;1.40;;
14933;SDS011;7560;51.364;12.384;2022-09-27T02:08:39;1.42;;;1.30;;
14933;SDS011;7560;51.364;12.384;2022-09-27T02:19:03;1.67;;;1.23;;
14933;SDS011;7560;51.364;12.384;2022-09-27T02:24:12;1.48;;;1.27;;
14933;SDS011;7560;51.364;12.384;2022-09-27T02:29:23;2.38;;;1.40;;
14933;SDS011;7560;51.364;12.384;2022-09-27T02:34:35;1.25;;;1.10;;
14933;SDS011;7560;51.364;12.384;2022-09-27T02:39:38;1.10;;;1.00;;
14933;SDS011;7560;51.364;12.384;2022-09-27T02:44:40;2.05;;;1.00;;
14933;SDS011;7560;51.364;12.384;2022-09-27T02:49:53;2.08;;;1.17;;
14933;SDS011;7560;51.364;12.384;2022-09-27T02:55:17;1.65;;;1.20;;
14933;SDS011;7560;51.364;12.384;2022-09-27T03:00:24;1.55;;;1.17;;
14933;SDS011;7560;51.364;12.384;2022-09-27T03:05:36;1.35;;;1.05;;
14933;SDS011;7560;51.364;12.384;2022-09-27T03:10:45;0.85;;;0.85;;
14933;SDS011;7560;51.364;12.384;2022-09-27T03:15:47;2.80;;;1.25;;
14933;SDS011;7560;51.364;12.384;2022-09-27T03:20:48;2.20;;;1.55;;
14933;SDS011;7560;51.364;12.384;2022-09-27T03:25:53;1.42;;;1.10;;
14933;SDS011;7560;51.364;12.384;2022-09-27T03:30:55;1.38;;;1.10;;
14933;SDS011;7560;51.364;12.384;2022-09-27T03:35:57;1.95;;;0.95;;
14933;SDS011;7560;51.364;12.384;2022-09-27T03:40:59;2.45;;;1.55;;
14933;SDS011;7560;51.364;12.384;2022-09-27T03:46:00;1.52;;;1.20;;
14933;SDS011;7560;51.364;12.384;2022-09-27T03:51:02;0.80;;;0.80;;
14933;SDS011;7560;51.364;12.384;2022-09-27T03:56:05;2.00;;;1.30;;
14933;SDS011;7560;51.364;12.384;2022-09-27T04:01:07;1.50;;;0.90;;
14933;SDS011;7560;51.364;12.384;2022-09-27T04:06:09;1.13;;;0.98;;
14933;SDS011;7560;51.364;12.384;2022-09-27T04:11:11;0.90;;;0.80;;
14933;SDS011;7560;51.364;12.384;2022-09-27T04:16:13;1.52;;;1.10;;
14933;SDS011;7560;51.364;12.384;2022-09-27T04:21:15;1.52;;;1.10;;
14933;SDS011;7560;51.364;12.384;2022-09-27T04:26:17;1.27;;;0.98;;
14933;SDS011;7560;51.364;12.384;2022-09-27T04:31:18;1.70;;;1.10;;
14933;SDS011;7560;51.364;12.384;2022-09-27T04:36:21;1.73;;;1.10;;
14933;SDS011;7560;51.364;12.384;2022-09-27T04:41:27;1.48;;;1.00;;
14933;SDS011;7560;51.364;12.384;2022-09-27T04:46:29;1.70;;;1.60;;
14933;SDS011;7560;51.364;12.384;2022-09-27T04:51:32;1.98;;;1.25;;
14933;SDS011;7560;51.364;12.384;2022-09-27T04:56:33;3.28;;;2.95;;
14933;SDS011;7560;51.364;12.384;2022-09-27T05:01:35;2.55;;;1.50;;
14933;SDS011;7560;51.364;12.384;2022-09-27T05:06:37;1.13;;;1.02;;
14933;SDS011;7560;51.364;12.384;2022-09-27T05:11:39;1.00;;;0.90;;
14933;SDS011;7560;51.364;12.384;2022-09-27T05:16:40;3.08;;;1.42;;
14933;SDS011;7560;51.364;12.384;2022-09-27T05:21:42;1.00;;;0.90;;
14933;SDS011;7560;51.364;12.384;2022-09-27T05:26:44;1.85;;;0.90;;
14933;SDS011;7560;51.364;12.384;2022-09-27T05:31:47;1.75;;;1.20;;
14933;SDS011;7560;51.364;12.384;2022-09-27T05:36:50;5.15;;;2.08;;
14933;SDS011;7560;51.364;12.384;2022-09-27T05:41:51;3.13;;;1.70;;
14933;SDS011;7560;51.364;12.384;2022-09-27T05:46:54;1.90;;;1.17;;
14933;SDS011;7560;51.364;12.384;2022-09-27T05:51:56;1.48;;;1.20;;
14933;SDS011;7560;51.364;12.384;2022-09-27T05:56:58;1.08;;;0.90;;
14933;SDS011;7560;51.364;12.384;2022-09-27T06:02:00;2.30;;;1.65;;
14933;SDS011;7560;51.364;12.384;2022-09-27T06:07:02;2.58;;;1.65;;
14933;SDS011;7560;51.364;12.384;2022-09-27T06:12:04;1.23;;;1.00;;
14933;SDS011;7560;51.364;12.384;2022-09-27T06:17:05;1.85;;;1.20;;
14933;SDS011;7560;51.364;12.384;2022-09-27T06:22:07;1.65;;;1.20;;
14933;SDS011;7560;51.364;12.384;2022-09-27T06:27:09;1.85;;;0.90;;
14933;SDS011;7560;51.364;12.384;2022-09-27T06:32:11;2.60;;;1.10;;
14933;SDS011;7560;51.364;12.384;2022-09-27T06:37:13;1.25;;;1.10;;
14933;SDS011;7560;51.364;12.384;2022-09-27T06:42:15;1.52;;;1.15;;
14933;SDS011;7560;51.364;12.384;2022-09-27T06:47:18;1.65;;;1.10;;
14933;SDS011;7560;51.364;12.384;2022-09-27T06:52:19;1.25;;;1.00;;
14933;SDS011;7560;51.364;12.384;2022-09-27T06:57:21;1.55;;;1.08;;
14933;SDS011;7560;51.364;12.384;2022-09-27T07:02:41;1.70;;;1.13;;
14933;SDS011;7560;51.364;12.384;2022-09-27T07:07:43;2.88;;;1.10;;
14933;SDS011;7560;51.364;12.384;2022-09-27T07:12:45;1.75;;;1.02;;
14933;SDS011;7560;51.364;12.384;2022-09-27T07:17:55;3.53;;;1.20;;
14933;SDS011;7560;51.364;12.384;2022-09-27T07:23:00;2.47;;;1.50;;
14933;SDS011;7560;51.364;12.384;2022-09-27T07:28:03;1.23;;;1.10;;
14933;SDS011;7560;51.364;12.384;2022-09-27T07:33:07;1.35;;;0.80;;
14933;SDS011;7560;51.364;12.384;2022-09-27T07:38:09;2.00;;;1.10;;
14933;SDS011;7560;51.364;12.384;2022-09-27T07:43:16;1.30;;;1.20;;
14933;SDS011;7560;51.364;12.384;2022-09-27T07:48:19;1.98;;;1.13;;
14933;SDS011;7560;51.364;12.384;2022-09-27T07:53:21;1.85;;;1.30;;
14933;SDS011;7560;51.364;12.384;2022-09-27T07:58:24;3.10;;;1.10;;
14933;SDS011;7560;51.364;12.384;2022-09-27T08:03:26;3.25;;;1.33;;
14933;SDS011;7560;51.364;12.384;2022-09-27T08:08:28;1.58;;;1.00;;
14933;SDS011;7560;51.364;12.384;2022-09-27T08:13:30;1.10;;;0.85;;
14933;SDS011;7560;51.364;12.384;2022-09-27T08:18:32;1.83;;;0.95;;
14933;SDS011;7560;51.364;12.384;2022-09-27T08:23:33;1.10;;;0.73;;
14933;SDS011;7560;51.364;12.384;2022-09-27T08:28:37;0.68;;;0.60;;
14933;SDS011;7560;51.364;12.384;2022-09-27T08:33:38;1.95;;;0.70;;
14933;SDS011;7560;51.364;12.384;2022-09-27T08:38:42;1.00;;;0.73;;
14933;SDS011;7560;51.364;12.384;2022-09-27T08:48:47;1.10;;;0.60;;
14933;SDS011;7560;51.364;12.384;2022-09-27T08:53:54;0.90;;;0.85;;
14933;SDS011;7560;51.364;12.384;2022-09-27T09:04:14;1.08;;;0.70;;
14933;SDS011;7560;51.364;12.384;2022-09-27T09:25:20;1.60;;;0.70;;
14933;SDS011;7560;51.364;12.384;2022-09-27T09:30:56;1.27;;;0.45;;
14933;SDS011;7560;51.364;12.384;2022-09-27T09:46:44;1.30;;;0.30;;
14933;SDS011;7560;51.364;12.384;2022-09-27T09:51:50;0.55;;;0.40;;
14933;SDS011;7560;51.364;12.384;2022-09-27T10:02:39;0.30;;;0.30;;
14933;SDS011;7560;51.364;12.384;2022-09-27T10:07:40;0.40;;;0.40;;
14933;SDS011;7560;51.364;12.384;2022-09-27T10:12:42;0.55;;;0.35;;
14933;SDS011;7560;51.364;12.384;2022-09-27T10:17:46;0.52;;;0.40;;
14933;SDS011;7560;51.364;12.384;2022-09-27T10:22:52;0.57;;;0.57;;
14933;SDS011;7560;51.364;12.384;2022-09-27T10:27:57;1.05;;;0.32;;
14933;SDS011;7560;51.364;12.384;2022-09-27T10:33:03;0.98;;;0.82;;
14933;SDS011;7560;51.364;12.384;2022-09-27T10:38:18;0.50;;;0.50;;
14933;SDS011;7560;51.364;12.384;2022-09-27T10:43:26;0.55;;;0.50;;
14933;SDS011;7560;51.364;12.384;2022-09-27T10:48:32;2.72;;;0.85;;
14933;SDS011;7560;51.364;12.384;2022-09-27T10:53:35;1.30;;;1.20;;
14933;SDS011;7560;51.364;12.384;2022-09-27T10:58:36;1.88;;;1.20;;
14933;SDS011;7560;51.364;12.384;2022-09-27T11:03:49;3.30;;;1.73;;
14933;SDS011;7560;51.364;12.384;2022-09-27T11:08:53;1.00;;;0.80;;
14933;SDS011;7560;51.364;12.384;2022-09-27T11:13:59;0.70;;;0.60;;
14933;SDS011;7560;51.364;12.384;2022-09-27T11:45:57;0.73;;;0.50;;
14933;SDS011;7560;51.364;12.384;2022-09-27T12:13:23;1.38;;;0.80;;
14933;SDS011;7560;51.364;12.384;2022-09-27T12:18:37;1.98;;;0.63;;
14933;SDS011;7560;51.364;12.384;2022-09-27T12:28:57;2.05;;;1.30;;
14933;SDS011;7560;51.364;12.384;2022-09-27T12:34:17;0.68;;;0.68;;
14933;SDS011;7560;51.364;12.384;2022-09-27T12:44:41;4.07;;;1.30;;
14933;SDS011;7560;51.364;12.384;2022-09-27T12:55:15;0.80;;;0.80;;
14933;SDS011;7560;51.364;12.384;2022-09-27T13:00:32;2.10;;;1.30;;
14933;SDS011;7560;51.364;12.384;2022-09-27T13:06:06;1.20;;;0.90;;
14933;SDS011;7560;51.364;12.384;2022-09-27T13:16:23;0.70;;;0.70;;
14933;SDS011;7560;51.364;12.384;2022-09-27T13:26:47;1.30;;;0.80;;
14933;SDS011;7560;51.364;12.384;2022-09-27T13:36:55;1.20;;;0.93;;
14933;SDS011;7560;51.364;12.384;2022-09-27T13:47:31;2.00;;;1.00;;
14933;SDS011;7560;51.364;12.384;2022-09-27T13:52:38;1.52;;;1.00;;
14933;SDS011;7560;51.364;12.384;2022-09-27T13:58:00;2.45;;;1.10;;
14933;SDS011;7560;51.364;12.384;2022-09-27T14:08:46;1.50;;;1.40;;
14933;SDS011;7560;51.364;12.384;2022-09-27T14:13:57;1.52;;;1.20;;
14933;SDS011;7560;51.364;12.384;2022-09-27T14:19:02;2.15;;;1.00;;
14933;SDS011;7560;51.364;12.384;2022-09-27T14:29:30;1.73;;;1.00;;
14933;SDS011;7560;51.364;12.384;2022-09-27T14:34:38;1.48;;;0.80;;
14933;SDS011;7560;51.364;12.384;2022-09-27T14:39:41;1.40;;;0.90;;
14933;SDS011;7560;51.364;12.384;2022-09-27T14:44:43;2.15;;;0.75;;
14933;SDS011;7560;51.364;12.384;2022-09-27T14:49:50;0.95;;;0.60;;
14933;SDS011;7560;51.364;12.384;2022-09-27T14:55:00;0.90;;;0.50;;
14933;SDS011;7560;51.364;12.384;2022-09-27T15:05:22;0.60;;;0.60;;
14933;SDS011;7560;51.364;12.384;2022-09-27T15:10:27;3.13;;;2.03;;
14933;SDS011;7560;51.364;12.384;2022-09-27T15:15:32;1.85;;;1.00;;
14933;SDS011;7560;51.364;12.384;2022-09-27T15:20:43;3.45;;;0.88;;
14933;SDS011;7560;51.364;12.384;2022-09-27T15:26:13;1.85;;;0.80;;
14933;SDS011;7560;51.364;12.384;2022-09-27T15:31:27;1.30;;;0.70;;
14933;SDS011;7560;51.364;12.384;2022-09-27T15:42:01;1.98;;;0.80;;
14933;SDS011;7560;51.364;12.384;2022-09-27T15:47:17;1.10;;;0.70;;
14933;SDS011;7560;51.364;12.384;2022-09-27T15:52:41;1.58;;;1.02;;
14933;SDS011;7560;51.364;12.384;2022-09-27T15:57:46;2.80;;;0.95;;
14933;SDS011;7560;51.364;12.384;2022-09-27T16:02:51;2.88;;;1.10;;
14933;SDS011;7560;51.364;12.384;2022-09-27T16:07:53;1.40;;;1.10;;
14933;SDS011;7560;51.364;12.384;2022-09-27T16:12:55;1.65;;;1.23;;
14933;SDS011;7560;51.364;12.384;2022-09-27T16:17:56;2.60;;;1.52;;
14933;SDS011;7560;51.364;12.384;2022-09-27T16:22:58;2.33;;;1.20;;
14933;SDS011;7560;51.364;12.384;2022-09-27T16:28:00;2.20;;;1.20;;
14933;SDS011;7560;51.364;12.384;2022-09-27T16:33:03;2.13;;;1.80;;
14933;SDS011;7560;51.364;12.384;2022-09-27T16:38:05;2.03;;;1.50;;
14933;SDS011;7560;51.364;12.384;2022-09-27T16:43:07;3.70;;;2.22;;
14933;SDS011;7560;51.364;12.384;2022-09-27T16:48:09;3.38;;;1.70;;
14933;SDS011;7560;51.364;12.384;2022-09-27T16:53:10;3.45;;;1.85;;
14933;SDS011;7560;51.364;12.384;2022-09-27T16:58:13;3.55;;;1.90;;
14933;SDS011;7560;51.364;12.384;2022-09-27T17:03:15;1.90;;;1.50;;
14933;SDS011;7560;51.364;12.384;2022-09-27T17:08:17;2.05;;;1.80;;
14933;SDS011;7560;51.364;12.384;2022-09-27T17:13:18;2.55;;;1.65;;
14933;SDS011;7560;51.364;12.384;2022-09-27T17:18:21;2.08;;;1.88;;
14933;SDS011;7560;51.364;12.384;2022-09-27T17:23:23;2.58;;;1.80;;
14933;SDS011;7560;51.364;12.384;2022-09-27T17:28:26;2.55;;;1.90;;
14933;SDS011;7560;51.364;12.384;2022-09-27T17:33:28;1.80;;;1.60;;
14933;SDS011;7560;51.364;12.384;2022-09-27T17:38:31;2.65;;;1.95;;
14933;SDS011;7560;51.364;12.384;2022-09-27T17:43:32;3.38;;;2.08;;
14933;SDS011;7560;51.364;12.384;2022-09-27T17:48:35;2.08;;;1.90;;
14933;SDS011;7560;51.364;12.384;2022-09-27T17:53:56;2.90;;;2.00;;
14933;SDS011;7560;51.364;12.384;2022-09-27T17:58:58;3.15;;;2.65;;
14933;SDS011;7560;51.364;12.384;2022-09-27T18:04:01;2.90;;;2.30;;
14933;SDS011;7560;51.364;12.384;2022-09-27T18:09:04;3.80;;;2.45;;
14933;SDS011;7560;51.364;12.384;2022-09-27T18:14:08;2.45;;;2.22;;
14933;SDS011;7560;51.364;12.384;2022-09-27T18:19:11;3.65;;;1.92;;
14933;SDS011;7560;51.364;12.384;2022-09-27T18:24:14;3.45;;;2.50;;
14933;SDS011;7560;51.364;12.384;2022-09-27T18:29:17;1.60;;;1.50;;
14933;SDS011;7560;51.364;12.384;2022-09-27T18:34:18;2.72;;;2.00;;
14933;SDS011;7560;51.364;12.384;2022-09-27T18:39:20;2.63;;;2.08;;
14933;SDS011;7560;51.364;12.384;2022-09-27T18:44:22;3.17;;;1.90;;
14933;SDS011;7560;51.364;12.384;2022-09-27T18:49:24;2.17;;;1.98;;
14933;SDS011;7560;51.364;12.384;2022-09-27T18:54:34;3.80;;;1.90;;
14933;SDS011;7560;51.364;12.384;2022-09-27T18:59:36;2.05;;;1.60;;
14933;SDS011;7560;51.364;12.384;2022-09-27T19:04:37;2.72;;;1.98;;
14933;SDS011;7560;51.364;12.384;2022-09-27T19:09:39;2.70;;;1.90;;
14933;SDS011;7560;51.364;12.384;2022-09-27T19:14:41;2.13;;;1.80;;
14933;SDS011;7560;51.364;12.384;2022-09-27T19:19:43;1.80;;;1.60;;
14933;SDS011;7560;51.364;12.384;2022-09-27T19:24:45;2.10;;;1.40;;
14933;SDS011;7560;51.364;12.384;2022-09-27T19:29:46;2.15;;;1.42;;
14933;SDS011;7560;51.364;12.384;2022-09-27T19:34:48;2.00;;;1.50;;
14933;SDS011;7560;51.364;12.384;2022-09-27T19:39:50;2.15;;;1.80;;
14933;SDS011;7560;51.364;12.384;2022-09-27T19:44:55;1.98;;;1.60;;
14933;SDS011;7560;51.364;12.384;2022-09-27T19:49:57;1.67;;;1.55;;
14933;SDS011;7560;51.364;12.384;2022-09-27T19:54:59;2.10;;;1.85;;
14933;SDS011;7560;51.364;12.384;2022-09-27T20:00:00;3.20;;;1.75;;
14933;SDS011;7560;51.364;12.384;2022-09-27T20:05:02;2.40;;;1.98;;
14933;SDS011;7560;51.364;12.384;2022-09-27T20:10:04;2.83;;;1.67;;
14933;SDS011;7560;51.364;12.384;2022-09-27T20:15:06;1.90;;;1.75;;
14933;SDS011;7560;51.364;12.384;2022-09-27T20:20:08;3.58;;;2.10;;
14933;SDS011;7560;51.364;12.384;2022-09-27T20:25:10;4.90;;;2.25;;
14933;SDS011;7560;51.364;12.384;2022-09-27T20:30:12;3.00;;;2.40;;
14933;SDS011;7560;51.364;12.384;2022-09-27T20:35:15;3.85;;;2.10;;
14933;SDS011;7560;51.364;12.384;2022-09-27T20:40:17;2.60;;;2.08;;
14933;SDS011;7560;51.364;12.384;2022-09-27T20:45:19;2.15;;;1.80;;
14933;SDS011;7560;51.364;12.384;2022-09-27T20:50:21;2.33;;;2.03;;
14933;SDS011;7560;51.364;12.384;2022-09-27T20:55:22;5.25;;;2.17;;
14933;SDS011;7560;51.364;12.384;2022-09-27T21:00:24;2.38;;;1.90;;
14933;SDS011;7560;51.364;12.384;2022-09-27T21:05:26;4.40;;;2.47;;
14933;SDS011;7560;51.364;12.384;2022-09-27T21:10:28;6.35;;;3.65;;
14933;SDS011;7560;51.364;12.384;2022-09-27T21:15:30;5.25;;;3.45;;
14933;SDS011;7560;51.364;12.384;2022-09-27T21:20:32;3.40;;;2.28;;
14933;SDS011;7560;51.364;12.384;2022-09-27T21:25:34;2.03;;;1.80;;
14933;SDS011;7560;51.364;12.384;2022-09-27T21:30:35;3.42;;;2.40;;
14933;SDS011;7560;51.364;12.384;2022-09-27T21:35:37;3.55;;;2.60;;
14933;SDS011;7560;51.364;12.384;2022-09-27T21:40:39;3.33;;;2.38;;
14933;SDS011;7560;51.364;12.384;2022-09-27T21:45:40;6.90;;;3.00;;
14933;SDS011;7560;51.364;12.384;2022-09-27T21:50:42;6.38;;;3.00;;
14933;SDS011;7560;51.364;12.384;2022-09-27T21:55:53;7.13;;;3.30;;
14933;SDS011;7560;51.364;12.384;2022-09-27T22:00:56;5.80;;;3.40;;
14933;SDS011;7560;51.364;12.384;2022-09-27T22:05:57;9.70;;;3.83;;
14933;SDS011;7560;51.364;12.384;2022-09-27T22:10:59;8.07;;;3.40;;
14933;SDS011;7560;51.364;12.384;2022-09-27T22:16:02;7.28;;;2.60;;
14933;SDS011;7560;51.364;12.384;2022-09-27T22:21:08;4.60;;;2.45;;
14933;SDS011;7560;51.364;12.384;2022-09-27T22:26:16;3.78;;;2.10;;
14933;SDS011;7560;51.364;12.384;2022-09-27T22:31:21;1.98;;;1.63;;
14933;SDS011;7560;51.364;12.384;2022-09-27T22:36:24;2.90;;;2.08;;
14933;SDS011;7560;51.364;12.384;2022-09-27T22:41:26;5.82;;;2.45;;
14933;SDS011;7560;51.364;12.384;2022-09-27T22:46:29;3.40;;;2.10;;
14933;SDS011;7560;51.364;12.384;2022-09-27T22:51:31;1.75;;;1.60;;
14933;SDS011;7560;51.364;12.384;2022-09-27T22:56:32;3.13;;;1.90;;
14933;SDS011;7560;51.364;12.384;2022-09-27T23:01:34;2.33;;;1.60;;
14933;SDS011;7560;51.364;12.384;2022-09-27T23:06:36;3.03;;;2.13;;
14933;SDS011;7560;51.364;12.384;2022-09-27T23:11:40;3.28;;;1.92;;
14933;SDS011;7560;51.364;12.384;2022-09-27T23:16:41;1.88;;;1.58;;
14933;SDS011;7560;51.364;12.384;2022-09-27T23:21:43;3.42;;;1.92;;
14933;SDS011;7560;51.364;12.384;2022-09-27T23:26:45;2.65;;;1.60;;
14933;SDS011;7560;51.364;12.384;2022-09-27T23:32:06;2.10;;;1.73;;
14933;SDS011;7560;51.364;12.384;2022-09-27T23:37:08;2.45;;;1.70;;
14933;SDS011;7560;51.364;12.384;2022-09-27T23:42:09;1.73;;;1.40;;
14933;SDS011;7560;51.364;12.384;2022-09-27T23:47:11;2.17;;;1.33;;
14933;SDS011;7560;51.364;12.384;2022-09-27T23:52:13;1.83;;;1.30;;
14933;SDS011;7560;51.364;12.384;2022-09-27T23:57:15;2.35;;;1.65;;
